Strona główna
METAR-TAF:

METAR-TAF

Lotnisko :

Pottstown Limerick Airport

Pottstown, Pensylwania, Stany Zjednoczone

Szerokość geograficzna: 40-14-18N, Długość geograficzna: 075-33-26W, wysokość: 89 m

Aktualna obserwacja pogody

Raport powstał 56 minut temu, godzina 02:54 UTC
Wiatr 3 kt od południowy zachód
Temperatura 18°C
Wilgotność 77%
Ciśnienie 1009 hPa
Widzialność: 16.1 km
Mało chmury na wysokości 6000 ft
Zachmurzenie całkowite na wysokości 8500 ft

METAR: KPTW 150254Z AUTO 23003KT 10SM FEW060 OVC085 18/14 A2980 RMK AO2 SLP088 60002 T01830144 50013

czas: 23:50 (03:50 UTC)


TAF: brakujący

Obserwacja i prognoza pogody dla ponad 4000 lotnisk (raport METAR i TAF).

Dostępne stacje oznaczono żółtymi i czerwonymi punktami na mapie.

Najedź kursorem aby zobaczyć nazwę stacji.

Kliknij aby zobaczyć obserwacje i prognozy pogody.

Aby zmienić mapę: kliknij na zielony przycisk z czarnym krzyżykiem, aby powiększyć; na zielony przycisk z myślnikiem, aby pomniejszyć; na zielone strzałki, aby przejść do map sąsiednich.


METAR-TAF: